Time;durP1;ratioP1;P1;durP2;ratioP2;P2;SDS_P1;SDS_P2;PMS_P1;PMS_P2;Temp;Humidity;BMP_temperature;BMP_pressure;BME280_temperature;BME280_humidity;BME280_pressure;Samples;Min_cycle;Max_cycle;Signal;HPM_P1;HPM_P2
2020/12/06 00:01:42;;;;;;;25.12;15.45;;;3.00;99.90;;;;;;477622;249;27565;-73
2020/12/06 00:03:44;;;;;;;27.27;17.62;;;3.00;99.90;;;;;;477732;249;28156;-74
2020/12/06 00:05:45;;;;;;;22.15;15.57;;;3.00;99.90;;;;;;477730;249;27956;-73
2020/12/06 00:07:46;;;;;;;27.75;16.80;;;3.10;99.90;;;;;;477714;249;27553;-73
2020/12/06 00:09:47;;;;;;;25.75;16.00;;;3.10;99.90;;;;;;477765;245;27644;-73
2020/12/06 00:11:49;;;;;;;25.05;15.93;;;3.10;99.90;;;;;;477742;249;27581;-73
2020/12/06 00:13:50;;;;;;;24.40;15.95;;;3.10;99.90;;;;;;477810;249;27589;-73
2020/12/06 00:15:51;;;;;;;21.85;15.45;;;3.10;99.90;;;;;;477829;249;27540;-72
2020/12/06 00:17:52;;;;;;;25.60;15.95;;;3.20;99.90;;;;;;477816;249;28085;-73
2020/12/06 00:19:54;;;;;;;28.30;17.87;;;3.20;99.90;;;;;;477837;249;28914;-73
2020/12/06 00:21:55;;;;;;;33.15;18.95;;;3.20;99.90;;;;;;477796;249;28081;-73
2020/12/06 00:23:56;;;;;;;44.75;24.05;;;3.20;99.90;;;;;;477682;249;27554;-74
2020/12/06 00:25:57;;;;;;;46.05;24.23;;;3.20;99.90;;;;;;477619;249;27458;-73
2020/12/06 00:27:59;;;;;;;41.22;22.27;;;3.10;99.90;;;;;;477644;249;27596;-73
2020/12/06 00:30:00;;;;;;;38.30;21.50;;;3.10;99.90;;;;;;477588;249;27810;-75
2020/12/06 00:32:01;;;;;;;36.20;19.15;;;3.10;99.90;;;;;;477633;249;27539;-73
2020/12/06 00:34:03;;;;;;;33.42;19.00;;;3.10;99.90;;;;;;477623;249;28018;-73
2020/12/06 00:36:04;;;;;;;34.20;18.90;;;3.10;99.90;;;;;;477658;248;27969;-73
2020/12/06 00:38:05;;;;;;;33.42;19.50;;;3.10;99.90;;;;;;477636;249;27473;-73
2020/12/06 00:40:06;;;;;;;31.95;18.65;;;3.20;99.90;;;;;;477546;249;27562;-73
2020/12/06 00:42:08;;;;;;;29.90;17.73;;;3.20;99.90;;;;;;477639;249;27640;-73
2020/12/06 00:44:09;;;;;;;29.10;18.60;;;3.20;99.90;;;;;;477662;249;27669;-73
2020/12/06 00:46:10;;;;;;;27.40;17.00;;;3.30;99.90;;;;;;477658;249;27597;-73
2020/12/06 00:48:11;;;;;;;30.42;18.30;;;3.30;99.90;;;;;;477485;249;27578;-73
2020/12/06 00:50:13;;;;;;;34.95;20.12;;;3.10;99.90;;;;;;477520;249;28036;-73
2020/12/06 00:52:14;;;;;;;32.85;20.10;;;3.00;99.90;;;;;;477614;249;28000;-73
2020/12/06 00:54:15;;;;;;;31.12;19.25;;;2.80;99.90;;;;;;477668;249;27590;-73
2020/12/06 00:56:16;;;;;;;31.87;18.45;;;2.80;99.90;;;;;;477658;249;27553;-73
2020/12/06 00:58:18;;;;;;;28.27;18.65;;;2.80;99.90;;;;;;477653;249;27644;-73
2020/12/06 01:00:19;;;;;;;27.42;17.60;;;2.90;99.90;;;;;;477470;249;27482;-73
2020/12/06 01:02:20;;;;;;;29.67;18.95;;;3.00;99.90;;;;;;477643;249;27569;-73
2020/12/06 01:04:21;;;;;;;30.65;19.70;;;3.20;99.90;;;;;;477680;249;27990;-73
2020/12/06 01:06:23;;;;;;;28.42;18.23;;;3.20;99.90;;;;;;477683;249;28290;-74
2020/12/06 01:08:24;;;;;;;28.55;18.55;;;3.30;99.90;;;;;;477711;249;27558;-73
2020/12/06 01:10:25;;;;;;;28.83;18.58;;;3.30;99.90;;;;;;477653;249;27557;-73
2020/12/06 01:12:26;;;;;;;30.95;18.15;;;3.30;99.90;;;;;;477697;249;27620;-73
2020/12/06 01:14:28;;;;;;;29.05;18.95;;;3.30;99.90;;;;;;477696;248;27948;-75
2020/12/06 01:16:29;;;;;;;31.62;19.67;;;3.30;99.90;;;;;;477682;249;27561;-73
2020/12/06 01:18:30;;;;;;;35.45;20.58;;;3.10;99.90;;;;;;477683;249;27462;-74
2020/12/06 01:20:31;;;;;;;37.33;21.98;;;3.00;99.90;;;;;;477636;249;28021;-73
2020/12/06 01:22:33;;;;;;;37.75;23.33;;;3.00;99.90;;;;;;477687;249;29279;-74
2020/12/06 01:24:34;;;;;;;28.85;18.67;;;3.00;99.90;;;;;;477656;249;27473;-74
2020/12/06 01:26:35;;;;;;;33.08;19.58;;;2.90;99.90;;;;;;477631;249;27593;-73
2020/12/06 01:28:36;;;;;;;37.88;22.55;;;2.80;99.90;;;;;;477648;248;27558;-73
2020/12/06 01:30:38;;;;;;;30.55;19.52;;;2.90;99.90;;;;;;477614;249;27546;-73
2020/12/06 01:32:39;;;;;;;32.25;19.15;;;2.90;99.90;;;;;;477662;249;27600;-73
2020/12/06 01:34:40;;;;;;;32.10;19.30;;;3.00;99.90;;;;;;477665;249;27506;-73
2020/12/06 01:36:41;;;;;;;32.97;20.27;;;3.20;99.90;;;;;;477654;249;28028;-73
2020/12/06 01:38:43;;;;;;;35.85;20.30;;;3.20;99.90;;;;;;477681;249;28195;-73
2020/12/06 01:40:44;;;;;;;40.03;21.77;;;3.20;99.90;;;;;;477710;249;27529;-73
2020/12/06 01:42:45;;;;;;;35.60;21.30;;;3.20;99.90;;;;;;477786;249;27562;-73
2020/12/06 01:44:46;;;;;;;37.22;20.45;;;3.20;99.90;;;;;;477793;249;27515;-73
2020/12/06 01:46:48;;;;;;;38.63;21.92;;;3.10;99.90;;;;;;477771;249;27473;-73
2020/12/06 01:48:49;;;;;;;37.90;21.20;;;3.00;99.90;;;;;;477843;249;27570;-73
2020/12/06 01:50:50;;;;;;;33.58;19.50;;;3.00;99.90;;;;;;477724;249;27920;-73
2020/12/06 01:52:52;;;;;;;34.40;19.20;;;3.00;99.90;;;;;;477722;245;28029;-73
2020/12/06 01:54:53;;;;;;;32.67;20.00;;;3.10;99.90;;;;;;477725;249;27988;-73
2020/12/06 01:56:54;;;;;;;32.22;19.90;;;3.20;99.90;;;;;;477665;249;27442;-73
2020/12/06 01:58:55;;;;;;;32.67;18.85;;;3.30;99.90;;;;;;477676;245;27474;-74
2020/12/06 02:00:57;;;;;;;28.17;17.95;;;3.30;99.90;;;;;;477637;249;27404;-73
2020/12/06 02:02:58;;;;;;;29.65;18.27;;;3.30;99.90;;;;;;477667;249;27697;-73
2020/12/06 02:04:59;;;;;;;35.45;20.85;;;3.30;99.90;;;;;;477671;249;27418;-74
2020/12/06 02:07:00;;;;;;;29.70;18.75;;;3.20;99.90;;;;;;477660;249;28017;-73
2020/12/06 02:09:02;;;;;;;29.80;17.62;;;3.10;99.90;;;;;;477671;244;28097;-74
2020/12/06 02:11:03;;;;;;;39.90;21.48;;;3.20;99.90;;;;;;477630;249;27522;-73
2020/12/06 02:13:04;;;;;;;34.47;20.05;;;3.00;99.90;;;;;;477636;249;27546;-73
2020/12/06 02:15:05;;;;;;;33.50;19.40;;;3.00;99.90;;;;;;477625;249;27563;-73
2020/12/06 02:17:07;;;;;;;38.17;19.77;;;2.90;99.90;;;;;;477602;249;27649;-74
2020/12/06 02:19:08;;;;;;;37.28;21.62;;;3.00;99.90;;;;;;477635;249;27514;-73
2020/12/06 02:21:09;;;;;;;32.55;17.80;;;2.80;99.90;;;;;;477608;249;27456;-73
2020/12/06 02:23:10;;;;;;;32.63;19.58;;;2.80;99.90;;;;;;477651;249;28713;-73
2020/12/06 02:25:12;;;;;;;32.05;18.95;;;2.80;99.90;;;;;;477638;244;29258;-73
2020/12/06 02:27:13;;;;;;;34.70;18.50;;;2.80;99.90;;;;;;477635;249;27557;-73
2020/12/06 02:29:14;;;;;;;32.25;18.90;;;2.90;99.90;;;;;;477595;249;27557;-73
2020/12/06 02:31:15;;;;;;;31.98;18.25;;;2.90;99.90;;;;;;477571;249;27564;-73
2020/12/06 02:33:17;;;;;;;34.92;19.30;;;2.90;99.90;;;;;;477639;249;27470;-74
2020/12/06 02:35:18;;;;;;;36.85;19.95;;;2.90;99.90;;;;;;477660;249;27725;-73
2020/12/06 02:37:19;;;;;;;41.80;21.37;;;2.70;99.90;;;;;;477625;249;27572;-73
2020/12/06 02:39:20;;;;;;;38.55;18.60;;;2.70;99.90;;;;;;477614;249;28059;-73
2020/12/06 02:41:22;;;;;;;33.22;17.95;;;2.70;99.90;;;;;;477648;248;29182;-73
2020/12/06 02:43:23;;;;;;;40.05;20.70;;;2.70;99.90;;;;;;477647;245;27522;-73
2020/12/06 02:45:24;;;;;;;37.95;19.17;;;2.70;99.90;;;;;;477649;249;27553;-73
2020/12/06 02:47:25;;;;;;;35.95;18.42;;;2.70;99.90;;;;;;477682;249;27795;-73
2020/12/06 02:49:27;;;;;;;35.65;18.80;;;2.70;99.90;;;;;;477666;249;27446;-73
2020/12/06 02:51:28;;;;;;;37.72;19.95;;;2.80;99.90;;;;;;477527;249;27592;-74
2020/12/06 02:53:29;;;;;;;29.25;17.20;;;2.80;99.90;;;;;;477701;249;28038;-73
2020/12/06 02:55:30;;;;;;;40.38;19.12;;;2.80;99.90;;;;;;477719;249;28045;-73
2020/12/06 02:57:32;;;;;;;33.08;17.60;;;2.70;99.90;;;;;;477751;249;27625;-75
2020/12/06 02:59:33;;;;;;;31.50;16.58;;;2.70;99.90;;;;;;477771;249;27466;-73
2020/12/06 03:01:34;;;;;;;33.78;16.95;;;2.60;99.90;;;;;;477732;249;27561;-73
2020/12/06 03:03:36;;;;;;;25.55;15.00;;;2.70;99.90;;;;;;477789;248;27577;-73
2020/12/06 03:05:37;;;;;;;32.63;17.25;;;2.80;99.90;;;;;;477738;245;27536;-73
2020/12/06 03:07:38;;;;;;;29.90;15.20;;;2.80;99.90;;;;;;477824;246;27562;-75
2020/12/06 03:09:39;;;;;;;31.77;16.77;;;2.80;99.90;;;;;;477801;249;27958;-73
2020/12/06 03:11:41;;;;;;;23.62;13.70;;;2.80;99.90;;;;;;477721;249;28031;-73
2020/12/06 03:13:42;;;;;;;22.27;13.35;;;2.80;99.90;;;;;;477751;248;27594;-72
2020/12/06 03:15:43;;;;;;;27.10;15.40;;;2.90;99.90;;;;;;477695;249;27556;-73
2020/12/06 03:17:44;;;;;;;29.25;16.08;;;2.70;99.90;;;;;;477698;249;27654;-74
2020/12/06 03:19:46;;;;;;;26.42;14.70;;;2.60;99.90;;;;;;477689;249;27561;-73
2020/12/06 03:21:47;;;;;;;27.62;15.40;;;2.70;99.90;;;;;;477583;249;27641;-73
2020/12/06 03:23:48;;;;;;;23.35;13.50;;;2.70;99.90;;;;;;477566;249;27561;-73
2020/12/06 03:25:49;;;;;;;24.85;13.60;;;2.70;99.90;;;;;;477613;249;28079;-73
2020/12/06 03:27:51;;;;;;;24.52;13.70;;;2.80;99.90;;;;;;477675;249;28092;-73
2020/12/06 03:29:52;;;;;;;23.48;13.73;;;3.00;99.90;;;;;;477689;249;27589;-73
2020/12/06 03:31:53;;;;;;;24.37;13.55;;;3.10;99.90;;;;;;477663;249;27550;-73
2020/12/06 03:33:54;;;;;;;23.90;13.70;;;3.10;99.90;;;;;;477662;249;27939;-74
2020/12/06 03:35:56;;;;;;;23.38;13.43;;;3.10;99.90;;;;;;477642;249;27640;-73
2020/12/06 03:37:57;;;;;;;19.70;12.15;;;3.10;99.90;;;;;;477733;249;27547;-74
2020/12/06 03:39:58;;;;;;;22.17;13.40;;;3.10;99.90;;;;;;477639;249;28067;-73
2020/12/06 03:41:59;;;;;;;20.08;11.90;;;3.00;99.90;;;;;;477649;245;28028;-74
2020/12/06 03:44:01;;;;;;;23.25;13.30;;;2.90;99.90;;;;;;477659;249;27555;-73
2020/12/06 03:46:02;;;;;;;20.98;12.43;;;2.90;99.90;;;;;;477625;249;27568;-73
2020/12/06 03:48:03;;;;;;;20.40;12.13;;;2.80;99.90;;;;;;477628;249;27550;-73
2020/12/06 03:50:04;;;;;;;20.77;12.57;;;2.90;99.90;;;;;;477617;249;27557;-73
2020/12/06 03:52:06;;;;;;;20.98;11.88;;;3.00;99.90;;;;;;477683;249;27910;-74
2020/12/06 03:54:07;;;;;;;20.33;11.12;;;3.00;99.90;;;;;;477653;249;27758;-73
2020/12/06 03:56:08;;;;;;;21.98;11.60;;;2.90;99.90;;;;;;477619;249;27956;-73
2020/12/06 03:58:09;;;;;;;22.23;11.80;;;2.90;99.90;;;;;;477638;249;28061;-72
2020/12/06 04:00:11;;;;;;;16.50;11.10;;;2.80;99.90;;;;;;477638;249;27561;-73
2020/12/06 04:02:13;;;;;;;15.82;10.20;;;2.80;99.90;;;;;;477667;249;27601;-75
2020/12/06 04:04:13;;;;;;;19.48;11.20;;;2.90;99.90;;;;;;477609;249;27565;-73
2020/12/06 04:06:14;;;;;;;18.95;11.50;;;3.00;99.90;;;;;;477659;249;27653;-73
2020/12/06 04:08:16;;;;;;;23.30;12.00;;;3.10;99.90;;;;;;477678;249;27446;-73
2020/12/06 04:10:17;;;;;;;20.27;11.65;;;3.00;99.90;;;;;;477638;249;27535;-74
2020/12/06 04:12:18;;;;;;;16.70;9.60;;;3.10;99.90;;;;;;477691;248;28827;-73
2020/12/06 04:14:19;;;;;;;16.95;10.52;;;3.10;99.90;;;;;;477635;249;29106;-73
2020/12/06 04:16:21;;;;;;;17.73;11.12;;;3.10;99.90;;;;;;477657;249;27634;-74
2020/12/06 04:18:22;;;;;;;15.40;9.73;;;3.10;99.90;;;;;;477712;249;27676;-73
2020/12/06 04:20:23;;;;;;;19.83;11.45;;;3.20;99.90;;;;;;477626;248;28255;-74
2020/12/06 04:22:25;;;;;;;17.80;11.60;;;3.30;99.90;;;;;;477621;249;27814;-73
2020/12/06 04:24:26;;;;;;;19.77;10.60;;;3.30;99.90;;;;;;477646;249;27557;-73
2020/12/06 04:26:27;;;;;;;17.50;9.18;;;3.20;99.90;;;;;;477698;248;27550;-74
2020/12/06 04:28:28;;;;;;;16.25;10.50;;;3.10;99.90;;;;;;478783;244;27923;-73
2020/12/06 04:30:30;;;;;;;16.17;9.93;;;3.20;99.90;;;;;;477657;249;27935;-73
2020/12/06 04:32:31;;;;;;;14.15;9.50;;;3.20;99.90;;;;;;477645;245;27912;-73
2020/12/06 04:34:36;;;;;;;17.37;10.90;;;3.30;99.90;;;;;;477847;249;27515;-73
2020/12/06 04:36:33;;;;;;;14.73;9.27;;;3.30;99.90;;;;;;477651;249;27608;-76
2020/12/06 04:38:35;;;;;;;16.15;10.10;;;3.30;99.90;;;;;;477819;249;27503;-74
2020/12/06 04:40:36;;;;;;;16.45;10.50;;;3.30;99.90;;;;;;477653;249;27644;-73
2020/12/06 04:42:37;;;;;;;22.15;11.88;;;3.30;99.90;;;;;;477487;249;27342;-72
2020/12/06 04:44:38;;;;;;;18.90;10.65;;;3.30;99.90;;;;;;477462;245;27430;-76
2020/12/06 04:46:40;;;;;;;16.48;10.15;;;3.20;99.90;;;;;;477462;244;28041;-75
2020/12/06 04:48:41;;;;;;;20.12;11.48;;;3.20;99.90;;;;;;477583;249;27974;-75
2020/12/06 04:50:42;;;;;;;20.10;11.70;;;3.00;99.90;;;;;;477530;249;27488;-75
2020/12/06 04:52:43;;;;;;;16.10;10.23;;;2.90;99.90;;;;;;477478;249;27382;-76
2020/12/06 04:54:45;;;;;;;17.42;10.48;;;2.80;99.90;;;;;;477602;249;27681;-73
2020/12/06 04:56:46;;;;;;;19.30;10.77;;;2.90;99.90;;;;;;477653;249;27646;-73
2020/12/06 04:58:47;;;;;;;24.02;11.63;;;3.00;99.90;;;;;;477678;248;27534;-73
2020/12/06 05:00:48;;;;;;;18.62;10.88;;;3.00;99.90;;;;;;477561;249;27932;-74
2020/12/06 05:02:50;;;;;;;17.35;11.00;;;3.00;99.90;;;;;;477567;249;27932;-74
2020/12/06 05:04:51;;;;;;;18.00;10.32;;;3.00;99.90;;;;;;477453;249;27386;-73
2020/12/06 05:06:52;;;;;;;20.10;10.35;;;3.00;99.90;;;;;;477454;249;27362;-73
2020/12/06 05:08:53;;;;;;;15.82;9.43;;;2.90;99.90;;;;;;477489;246;27362;-73
2020/12/06 05:10:55;;;;;;;17.58;10.45;;;3.00;99.90;;;;;;477463;244;27389;-73
2020/12/06 05:12:56;;;;;;;17.35;10.48;;;3.10;99.90;;;;;;477618;249;27588;-72
2020/12/06 05:14:57;;;;;;;17.95;10.38;;;3.10;99.90;;;;;;477546;249;27367;-73
2020/12/06 05:16:58;;;;;;;15.80;10.23;;;3.10;99.90;;;;;;477526;249;28980;-73
2020/12/06 05:19:00;;;;;;;14.50;9.75;;;3.10;99.90;;;;;;477490;246;28957;-73
2020/12/06 05:21:01;;;;;;;14.38;9.43;;;3.20;99.90;;;;;;477461;249;27366;-74
2020/12/06 05:23:02;;;;;;;13.23;8.73;;;3.20;99.90;;;;;;477508;245;27374;-73
2020/12/06 05:25:03;;;;;;;14.98;9.50;;;3.20;99.90;;;;;;477428;249;27374;-73
2020/12/06 05:27:05;;;;;;;13.20;8.88;;;3.30;99.90;;;;;;477547;249;27508;-73
2020/12/06 05:29:06;;;;;;;12.82;8.00;;;3.20;99.90;;;;;;477567;249;27569;-73
2020/12/06 05:31:07;;;;;;;12.80;8.55;;;3.20;99.90;;;;;;477614;244;27898;-73
2020/12/06 05:33:08;;;;;;;13.88;9.20;;;3.30;99.90;;;;;;477608;249;27590;-73
2020/12/06 05:35:10;;;;;;;14.77;8.80;;;3.30;99.90;;;;;;477579;249;27462;-73
2020/12/06 05:37:11;;;;;;;15.05;9.43;;;3.40;99.90;;;;;;477507;249;27801;-73
2020/12/06 05:39:12;;;;;;;17.23;9.98;;;3.40;99.90;;;;;;477466;249;27996;-73
2020/12/06 05:41:13;;;;;;;14.05;8.98;;;3.30;99.90;;;;;;477520;249;27525;-73
2020/12/06 05:43:15;;;;;;;15.45;9.60;;;3.30;99.90;;;;;;477606;249;27490;-73
2020/12/06 05:45:16;;;;;;;15.07;9.20;;;3.30;99.90;;;;;;477657;249;27547;-74
2020/12/06 05:47:17;;;;;;;14.73;9.82;;;3.30;99.90;;;;;;477614;249;27505;-74
2020/12/06 05:49:19;;;;;;;19.37;10.85;;;3.30;99.90;;;;;;477649;249;27699;-74
2020/12/06 05:51:20;;;;;;;14.38;9.20;;;3.40;99.90;;;;;;477511;244;27887;-74
2020/12/06 05:53:21;;;;;;;15.82;9.68;;;3.40;99.90;;;;;;477555;249;27385;-74
2020/12/06 05:55:22;;;;;;;13.60;8.85;;;3.30;99.90;;;;;;477494;249;27837;-74
2020/12/06 05:57:23;;;;;;;14.70;9.65;;;3.30;99.90;;;;;;477543;249;27977;-73
2020/12/06 05:59:25;;;;;;;14.32;9.43;;;3.30;99.90;;;;;;477673;248;27968;-74
2020/12/06 06:01:26;;;;;;;15.20;9.63;;;3.30;99.90;;;;;;477720;249;27469;-73
2020/12/06 06:03:28;;;;;;;16.35;9.68;;;3.30;99.90;;;;;;477774;249;27350;-74
2020/12/06 06:05:29;;;;;;;14.98;9.40;;;3.40;99.90;;;;;;477595;249;27363;-74
2020/12/06 06:07:30;;;;;;;18.70;9.75;;;3.40;99.90;;;;;;477691;249;27373;-73
2020/12/06 06:09:31;;;;;;;18.73;10.50;;;3.30;99.90;;;;;;477648;249;27478;-74
2020/12/06 06:11:32;;;;;;;14.27;9.77;;;3.40;99.90;;;;;;477541;244;27355;-75
2020/12/06 06:13:34;;;;;;;14.57;9.05;;;3.30;99.90;;;;;;477686;249;27442;-73
2020/12/06 06:15:35;;;;;;;16.60;9.20;;;3.40;99.90;;;;;;477516;249;27921;-73
2020/12/06 06:17:36;;;;;;;16.42;9.57;;;3.40;99.90;;;;;;477523;249;28899;-73
2020/12/06 06:19:37;;;;;;;16.90;10.20;;;3.40;99.90;;;;;;477543;249;27958;-74
2020/12/06 06:21:39;;;;;;;17.70;10.02;;;3.40;99.90;;;;;;477572;249;27490;-74
2020/12/06 06:23:40;;;;;;;16.83;10.00;;;3.40;99.90;;;;;;477678;249;27519;-73
2020/12/06 06:25:41;;;;;;;16.23;9.75;;;3.30;99.90;;;;;;477670;249;27627;-74
2020/12/06 06:27:42;;;;;;;14.93;9.25;;;3.30;99.90;;;;;;477595;249;27578;-74
2020/12/06 06:29:44;;;;;;;17.58;10.73;;;3.30;99.90;;;;;;477616;249;27478;-74
2020/12/06 06:31:45;;;;;;;19.62;11.32;;;3.30;99.90;;;;;;477566;249;27541;-74
2020/12/06 06:33:46;;;;;;;19.02;11.40;;;3.40;99.90;;;;;;477587;249;28029;-73
2020/12/06 06:35:47;;;;;;;22.52;12.55;;;3.40;99.90;;;;;;477584;249;29021;-73
2020/12/06 06:37:49;;;;;;;20.00;11.63;;;3.30;99.90;;;;;;477641;244;27446;-73
2020/12/06 06:39:50;;;;;;;15.05;9.32;;;3.30;99.90;;;;;;477576;249;27552;-74
2020/12/06 06:41:51;;;;;;;17.62;10.35;;;3.40;99.90;;;;;;477400;249;27409;-75
2020/12/06 06:43:52;;;;;;;17.12;9.73;;;3.40;99.90;;;;;;477543;249;27566;-73
2020/12/06 06:45:54;;;;;;;15.93;9.73;;;3.40;99.90;;;;;;477566;245;27378;-73
2020/12/06 06:47:55;;;;;;;18.75;10.35;;;3.40;99.90;;;;;;477528;249;27379;-74
2020/12/06 06:49:56;;;;;;;17.00;10.02;;;3.20;99.90;;;;;;477453;249;27838;-74
2020/12/06 06:51:57;;;;;;;13.45;8.38;;;3.20;99.90;;;;;;477394;249;27852;-74
2020/12/06 06:53:59;;;;;;;16.08;9.45;;;3.20;99.90;;;;;;477348;249;27394;-74
2020/12/06 06:56:01;;;;;;;14.70;9.05;;;3.20;99.90;;;;;;477453;249;27445;-73
2020/12/06 06:58:01;;;;;;;18.92;11.12;;;3.20;99.90;;;;;;477298;244;27358;-74
2020/12/06 07:00:02;;;;;;;17.98;10.10;;;3.30;99.90;;;;;;477547;245;27458;-74
2020/12/06 07:02:04;;;;;;;20.37;12.10;;;3.30;99.90;;;;;;477511;247;27454;-74
2020/12/06 07:04:05;;;;;;;16.60;9.80;;;3.30;99.90;;;;;;477650;249;28074;-73
2020/12/06 07:06:06;;;;;;;15.68;10.00;;;3.30;99.90;;;;;;477706;249;29052;-74
2020/12/06 07:08:07;;;;;;;15.90;10.07;;;3.30;99.90;;;;;;477619;248;27465;-74
2020/12/06 07:10:09;;;;;;;15.82;9.10;;;3.30;99.90;;;;;;477500;249;27500;-75
2020/12/06 07:12:10;;;;;;;15.25;9.52;;;3.30;99.90;;;;;;478177;245;27443;-74
2020/12/06 07:14:11;;;;;;;15.18;9.23;;;3.30;99.90;;;;;;476029;249;27833;-74
2020/12/06 07:16:12;;;;;;;15.30;9.70;;;3.30;99.90;;;;;;476014;249;27522;-74
2020/12/06 07:18:14;;;;;;;16.20;9.80;;;3.30;99.90;;;;;;475991;249;28083;-74
2020/12/06 07:20:15;;;;;;;14.02;8.98;;;3.40;99.90;;;;;;476010;244;28059;-74
2020/12/06 07:22:16;;;;;;;14.27;8.40;;;3.40;99.90;;;;;;477530;249;27778;-74
2020/12/06 07:24:17;;;;;;;14.70;8.88;;;3.30;99.90;;;;;;477752;249;27657;-75
2020/12/06 07:26:19;;;;;;;15.27;8.75;;;3.30;99.90;;;;;;477641;249;27370;-74
2020/12/06 07:28:20;;;;;;;15.38;9.60;;;3.30;99.90;;;;;;477651;249;27485;-74
2020/12/06 07:30:21;;;;;;;13.45;8.82;;;3.30;99.90;;;;;;477743;249;27957;-74
2020/12/06 07:32:23;;;;;;;15.50;9.23;;;3.30;99.90;;;;;;477790;249;27599;-75
2020/12/06 07:34:24;;;;;;;15.15;9.63;;;3.40;99.90;;;;;;477860;249;27551;-74
2020/12/06 07:36:25;;;;;;;15.30;9.77;;;3.40;99.90;;;;;;477836;249;27585;-74
2020/12/06 07:38:26;;;;;;;15.55;9.13;;;3.30;99.90;;;;;;477655;249;27925;-74
2020/12/06 07:40:28;;;;;;;15.18;9.52;;;3.30;99.90;;;;;;477629;244;27909;-75
2020/12/06 07:42:29;;;;;;;14.50;8.88;;;3.30;99.90;;;;;;477700;244;28154;-74
2020/12/06 07:44:30;;;;;;;13.35;9.30;;;3.30;99.90;;;;;;477670;249;27669;-73
2020/12/06 07:46:31;;;;;;;16.95;9.75;;;3.30;99.90;;;;;;477684;248;27597;-74
2020/12/06 07:48:33;;;;;;;14.05;8.63;;;3.30;99.90;;;;;;477577;248;27550;-74
2020/12/06 07:50:34;;;;;;;13.77;9.02;;;3.40;99.90;;;;;;477632;248;27896;-74
2020/12/06 07:52:35;;;;;;;15.43;9.40;;;3.40;99.90;;;;;;477633;249;27511;-75
2020/12/06 07:54:36;;;;;;;16.65;9.77;;;3.40;99.90;;;;;;477639;249;27554;-73
2020/12/06 07:56:38;;;;;;;17.90;9.68;;;3.40;99.90;;;;;;477594;248;27573;-74
2020/12/06 07:58:39;;;;;;;15.23;10.18;;;3.40;99.90;;;;;;477617;249;28036;-74
2020/12/06 08:00:40;;;;;;;14.50;9.10;;;3.40;99.90;;;;;;477523;249;28036;-74
2020/12/06 08:02:41;;;;;;;16.62;9.40;;;3.50;99.90;;;;;;477511;244;29157;-74
2020/12/06 08:04:43;;;;;;;13.52;8.63;;;3.40;99.90;;;;;;477519;249;27482;-74
2020/12/06 08:06:44;;;;;;;18.65;9.95;;;3.40;99.90;;;;;;477484;249;27368;-75
2020/12/06 08:08:48;;;;;;;14.48;9.18;;;3.50;99.90;;;;;;477488;249;27374;-74
2020/12/06 08:10:46;;;;;;;15.68;10.15;;;3.50;99.90;;;;;;477196;249;27445;-74
2020/12/06 08:12:48;;;;;;;13.07;8.63;;;3.50;99.90;;;;;;477556;249;27454;-77
2020/12/06 08:14:49;;;;;;;15.70;8.60;;;3.50;99.90;;;;;;477618;249;27476;-79
2020/12/06 08:16:50;;;;;;;13.43;8.52;;;3.50;99.90;;;;;;477636;249;27469;-76
2020/12/06 08:18:51;;;;;;;14.02;8.15;;;3.60;99.90;;;;;;477551;244;27951;-75
2020/12/06 08:20:53;;;;;;;13.62;8.75;;;3.70;99.90;;;;;;477422;249;27832;-75
2020/12/06 08:22:54;;;;;;;12.93;8.05;;;3.70;99.90;;;;;;477352;244;27702;-76
2020/12/06 08:24:55;;;;;;;13.73;8.45;;;3.60;99.90;;;;;;477466;249;27418;-75
2020/12/06 08:26:56;;;;;;;13.02;7.82;;;3.60;99.90;;;;;;477461;245;27454;-76
2020/12/06 08:28:58;;;;;;;12.25;7.90;;;3.70;99.90;;;;;;477405;249;27484;-75
2020/12/06 08:30:59;;;;;;;13.85;8.60;;;3.70;99.90;;;;;;477372;249;27477;-75
2020/12/06 08:33:00;;;;;;;14.65;9.90;;;3.70;99.90;;;;;;477419;249;27469;-76
2020/12/06 08:35:01;;;;;;;15.90;10.57;;;3.70;99.90;;;;;;477520;245;27378;-76
2020/12/06 08:37:03;;;;;;;17.30;10.70;;;3.70;99.90;;;;;;477469;249;27844;-77
2020/12/06 08:39:04;;;;;;;14.23;9.68;;;3.70;99.90;;;;;;477426;249;27978;-75
2020/12/06 08:41:05;;;;;;;15.18;9.68;;;3.70;99.90;;;;;;478318;244;27459;-76
2020/12/06 08:43:06;;;;;;;12.18;8.38;;;3.70;99.90;;;;;;484679;245;27447;-75
2020/12/06 08:45:08;;;;;;;12.68;8.43;;;3.70;99.90;;;;;;484632;245;27431;-76
2020/12/06 08:47:09;;;;;;;12.63;9.50;;;3.80;99.90;;;;;;484644;245;27793;-77
2020/12/06 08:49:10;;;;;;;13.73;8.82;;;3.80;99.90;;;;;;484655;245;27551;-76
2020/12/06 08:51:11;;;;;;;12.75;8.02;;;3.80;99.90;;;;;;484527;245;27431;-75
2020/12/06 08:53:13;;;;;;;11.77;7.68;;;3.80;99.90;;;;;;484663;245;27906;-75
2020/12/06 08:55:14;;;;;;;12.65;8.43;;;3.90;99.90;;;;;;484671;245;28096;-76
2020/12/06 08:57:15;;;;;;;11.75;8.13;;;3.80;99.90;;;;;;484581;245;27914;-75
2020/12/06 08:59:17;;;;;;;11.45;7.82;;;3.90;99.90;;;;;;484672;245;27467;-76
2020/12/06 09:01:18;;;;;;;11.68;7.70;;;3.90;99.90;;;;;;484600;245;27410;-75
2020/12/06 09:03:19;;;;;;;11.75;7.85;;;3.90;99.90;;;;;;484644;245;27535;-75
2020/12/06 09:05:20;;;;;;;12.77;8.25;;;3.90;99.90;;;;;;484697;245;27506;-76
2020/12/06 09:07:22;;;;;;;13.68;9.25;;;3.90;99.90;;;;;;484602;245;27451;-76
2020/12/06 09:09:23;;;;;;;15.32;9.70;;;4.00;99.90;;;;;;484633;245;27914;-77
2020/12/06 09:11:24;;;;;;;14.90;9.75;;;4.00;99.90;;;;;;484637;241;28160;-76
2020/12/06 09:13:25;;;;;;;14.35;9.23;;;4.00;99.90;;;;;;484671;245;27483;-76
2020/12/06 09:15:27;;;;;;;15.35;10.05;;;4.00;99.90;;;;;;484769;245;27443;-75
2020/12/06 09:17:28;;;;;;;12.60;8.57;;;4.00;99.90;;;;;;484841;245;27407;-75
2020/12/06 09:19:29;;;;;;;13.73;8.93;;;4.00;99.90;;;;;;484757;245;27443;-75
2020/12/06 09:21:30;;;;;;;14.20;8.98;;;4.00;99.90;;;;;;484809;245;27479;-76
2020/12/06 09:23:38;;;;;;;12.98;8.15;;;4.00;99.90;;;;;;484693;245;27431;-76
2020/12/06 09:25:44;;;;;;;12.95;9.45;;;4.20;99.90;;;;;;483803;245;27487;-76
2020/12/06 09:27:45;;;;;;;13.70;9.32;;;4.20;99.90;;;;;;471424;245;27484;-75
2020/12/06 09:29:46;;;;;;;14.10;8.10;;;4.20;99.90;;;;;;481303;244;28059;-75
2020/12/06 09:31:47;;;;;;;30.83;17.12;;;4.20;99.90;;;;;;481228;245;27994;-77
2020/12/06 09:33:49;;;;;;;26.95;14.65;;;4.20;99.90;;;;;;481240;245;27529;-77
2020/12/06 09:35:50;;;;;;;20.60;12.80;;;4.20;99.90;;;;;;481230;245;27599;-76
2020/12/06 09:37:51;;;;;;;18.35;12.43;;;4.30;99.90;;;;;;481590;245;27470;-75
2020/12/06 09:39:52;;;;;;;14.43;9.73;;;4.40;99.90;;;;;;481695;245;27549;-76
2020/12/06 09:41:54;;;;;;;15.20;9.73;;;4.30;99.90;;;;;;481652;245;27512;-75
2020/12/06 09:43:55;;;;;;;15.23;9.10;;;4.30;99.90;;;;;;481608;245;27466;-74
2020/12/06 09:45:56;;;;;;;13.13;8.52;;;4.30;99.90;;;;;;481665;245;27973;-76
2020/12/06 09:47:57;;;;;;;13.77;9.50;;;4.30;99.90;;;;;;481612;245;28043;-77
2020/12/06 09:49:59;;;;;;;11.50;8.23;;;4.30;99.90;;;;;;481549;245;27987;-77
2020/12/06 09:52:00;;;;;;;10.15;7.22;;;4.40;99.90;;;;;;481630;245;27555;-76
2020/12/06 09:54:02;;;;;;;10.80;7.15;;;4.40;99.90;;;;;;481610;245;27476;-75
2020/12/06 09:56:02;;;;;;;12.20;7.62;;;4.40;99.90;;;;;;481588;245;27569;-77
2020/12/06 09:58:04;;;;;;;9.18;7.03;;;4.40;99.90;;;;;;481608;245;28065;-75
2020/12/06 10:00:05;;;;;;;10.32;7.07;;;4.40;99.90;;;;;;481570;245;27969;-76
2020/12/06 10:02:06;;;;;;;10.13;7.35;;;4.40;99.90;;;;;;481583;245;29128;-77
2020/12/06 10:04:07;;;;;;;11.27;7.40;;;4.40;99.90;;;;;;481622;245;27528;-76
2020/12/06 10:06:09;;;;;;;9.68;7.37;;;4.50;99.90;;;;;;481590;245;27515;-77
2020/12/06 10:08:10;;;;;;;9.88;6.95;;;4.40;99.90;;;;;;481618;245;27532;-76
2020/12/06 10:10:11;;;;;;;9.52;7.12;;;4.40;99.90;;;;;;481561;245;27499;-77
2020/12/06 10:12:12;;;;;;;9.85;7.53;;;4.40;99.90;;;;;;481574;245;27528;-76
2020/12/06 10:14:14;;;;;;;13.70;9.05;;;4.40;99.90;;;;;;481606;245;27849;-76
2020/12/06 10:16:15;;;;;;;11.85;8.15;;;4.40;99.90;;;;;;481617;245;27629;-75
2020/12/06 10:18:16;;;;;;;11.80;8.27;;;4.50;99.90;;;;;;481522;245;27991;-75
2020/12/06 10:20:19;;;;;;;11.38;7.37;;;4.50;99.90;;;;;;481559;245;27994;-76
2020/12/06 10:22:19;;;;;;;11.20;7.25;;;4.50;99.90;;;;;;482007;245;27838;-75
2020/12/06 10:24:20;;;;;;;11.35;7.80;;;4.40;99.90;;;;;;481783;245;27540;-78
2020/12/06 10:26:21;;;;;;;11.23;7.60;;;4.40;99.90;;;;;;481626;245;27586;-76